Have a Safe July 4th! 

Flight Track Log - Related Links

Times and Time Zones

All times are in EDT time to prevent confusion due to time zone crossing. See the SKW5564 flight status page for this flight to view local times or setup timezone preferences in your user account.

Time Position Orientation Groundspeed Altitude Reporting Facility
EDT Latitude Longitude Course Direction KTS MPH feet Rate Location/Type
Mon 12:14:46 AM 39.8000 -104.6667 159° South 177 204 6,900  Level Denver TRACON
Mon 12:15:28 AM 39.7667 -104.6500 159° South 238 274 7,900 1,833 Climbing Denver TRACON
Mon 12:16:34 AM 39.6833 -104.6000 155° Southeast 290 334 10,200 1,846 Climbing Denver TRACON
Mon 12:17:12 AM 39.6381 -104.5819 163° South 295 339 11,100 1,152 Climbing Denver Center
Mon 12:18:13 AM 39.5464 -104.5556 167° South 335 386 12,100 492 Climbing Denver Center
Mon 12:19:14 AM 39.4447 -104.5694 186° South 370 426 12,100 -49 Level Denver Center
Mon 12:20:15 AM 39.3369 -104.5836 186° South 368 423 12,000 -80 Descending Denver Center
Mon 12:20:29 AM 39.3211 -104.5858 186° South 364 419 12,000  Level Denver Center
Mon 12:21:15 AM 39.2367 -104.5950 185° South 363 418 12,000  Level Denver Center
Mon 12:22:16 AM 39.1386 -104.5783 172° South 362 417 12,000 -295 Level Denver Center
Mon 12:23:17 AM 39.0414 -104.5658 174° South 356 410 11,400 -787 Descending Denver Center
Mon 12:24:18 AM 38.9369 -104.5653 180° South 372 428 10,400 -1,068 Descending Denver Center
Mon 12:24:30 AM 38.9150 -104.5633 176° South 375 432 10,100 -393 Descending Denver Center
Mon 12:25:19 AM 38.8347 -104.5631 180° South 360 414 10,000 -55 Descending Denver Center
Mon 12:26:20 AM 38.7547 -104.5622 180° South 311 358 10,000 -541 Level Denver Center
Mon 12:27:21 AM 38.6928 -104.5767 190° South 231 266 8,900 -984 Descending Denver Center
Mon 12:28:22 AM 38.6931 -104.6442 270° West 211 243 8,000 -870 Descending Denver Center
Mon 12:28:30 AM 38.6922 -104.6572 265° West 182 209 7,900 -393 Descending Denver Center
Mon 12:29:23 AM 38.7047 -104.7014 290° West 200 230 7,600 -531 Descending Denver Center
Mon 12:30:23 AM 38.7503 -104.7164 346° North 164 189 6,900 -700 Descending Denver Center
Mon 12:32:00 AM 38.8000 -104.7000 342° North  Level FlightAware Approximate
Mon 12:39:00 AM 38.8058 -104.7008 342° North  Level Estimated

Login

Don't have an account? Register now (free) for customized features, flight alerts, and more!